Time;durP1;ratioP1;P1;durP2;ratioP2;P2;SDS_P1;SDS_P2;PMS_P1;PMS_P2;Temp;Humidity;BMP_temperature;BMP_pressure;BME280_temperature;BME280_humidity;BME280_pressure;Samples;Min_cycle;Max_cycle;Signal;HPM_P1;HPM_P2
2022/10/21 00:00:31;;;;;;;25.50;17.27;;;14.10;99.90;;;;;;6211780;23;20009;-94
2022/10/21 00:02:58;;;;;;;26.75;16.90;;;14.10;99.90;;;;;;6211677;23;20021;-94
2022/10/21 00:05:24;;;;;;;26.35;17.67;;;14.00;99.90;;;;;;6186498;23;20017;-93
2022/10/21 00:07:51;;;;;;;32.72;18.42;;;14.00;99.90;;;;;;6211662;23;20075;-92
2022/10/21 00:10:17;;;;;;;30.02;18.80;;;14.00;99.90;;;;;;6186898;23;20009;-92
2022/10/21 00:12:44;;;;;;;32.58;20.17;;;14.00;99.90;;;;;;6211175;23;20135;-93
2022/10/21 00:15:11;;;;;;;37.55;23.20;;;14.10;99.90;;;;;;6186436;23;20005;-93
2022/10/21 00:17:40;;;;;;;43.08;26.38;;;14.10;99.90;;;;;;6211578;23;20031;-92
2022/10/21 00:20:11;;;;;;;48.08;26.52;;;14.10;99.90;;;;;;6211382;23;20015;-92
2022/10/21 00:22:39;;;;;;;43.30;26.90;;;14.10;99.90;;;;;;6211848;23;20009;-93
2022/10/21 00:25:07;;;;;;;43.47;26.35;;;14.10;99.90;;;;;;6211022;23;20017;-93
2022/10/21 00:27:33;;;;;;;43.58;25.65;;;14.10;99.90;;;;;;6186169;23;20068;-94
2022/10/21 00:30:01;;;;;;;40.33;25.35;;;14.00;99.90;;;;;;6186512;23;20009;-93
2022/10/21 00:32:27;;;;;;;40.63;25.33;;;14.00;99.90;;;;;;6186322;23;20005;-93
2022/10/21 00:34:53;;;;;;;37.65;23.52;;;14.00;99.90;;;;;;6184311;23;20009;-92
2022/10/21 00:37:20;;;;;;;37.70;22.13;;;14.00;99.90;;;;;;6186175;23;20371;-94
2022/10/21 00:39:46;;;;;;;48.47;25.98;;;14.00;99.90;;;;;;6211168;23;20060;-91
2022/10/21 00:42:17;;;;;;;46.38;26.02;;;14.00;99.90;;;;;;6186645;23;20037;-92
2022/10/21 00:45:00;;;;;;;44.90;25.77;;;14.00;99.90;;;;;;6186409;23;20021;-92
2022/10/21 00:47:27;;;;;;;46.33;25.98;;;13.90;99.90;;;;;;6211119;23;20037;-93
2022/10/21 00:50:27;;;;;;;43.30;25.00;;;13.90;99.90;;;;;;6211346;23;20013;-92
2022/10/21 00:53:08;;;;;;;44.30;25.88;;;13.90;99.90;;;;;;6186924;23;20012;-93
2022/10/21 00:55:51;;;;;;;43.75;25.95;;;13.90;99.90;;;;;;6187775;23;20057;-92
2022/10/21 00:58:37;;;;;;;44.28;26.13;;;13.80;99.90;;;;;;6187955;23;20507;-92
2022/10/21 01:01:17;;;;;;;42.67;25.40;;;13.80;99.90;;;;;;6187781;23;20100;-93
2022/10/21 01:03:50;;;;;;;51.83;26.67;;;13.70;99.90;;;;;;6188725;23;20009;-92
2022/10/21 01:06:25;;;;;;;46.47;24.85;;;13.70;99.90;;;;;;6187446;23;20013;-93
2022/10/21 01:09:00;;;;;;;46.90;25.23;;;13.70;99.90;;;;;;6211622;23;20005;-92
2022/10/21 01:11:38;;;;;;;41.47;25.17;;;13.70;99.90;;;;;;6187513;23;20016;-93
2022/10/21 01:14:52;;;;;;;43.17;25.08;;;13.70;99.90;;;;;;6187308;23;20009;-95
2022/10/21 01:18:00;;;;;;;41.13;25.25;;;13.70;99.90;;;;;;6161739;23;20063;-92
2022/10/21 01:21:21;;;;;;;42.15;25.65;;;13.70;99.90;;;;;;6186207;23;20017;-93
2022/10/21 01:24:30;;;;;;;44.53;26.40;;;13.70;99.90;;;;;;6072742;23;20027;-93
2022/10/21 01:27:22;;;;;;;51.45;27.20;;;13.60;99.90;;;;;;6048773;23;20046;-93
2022/10/21 01:30:15;;;;;;;48.20;27.13;;;13.60;99.90;;;;;;6072692;23;20044;-93
2022/10/21 01:33:00;;;;;;;51.55;28.13;;;13.60;99.90;;;;;;6072602;23;20057;-93
2022/10/21 01:35:58;;;;;;;53.53;28.00;;;13.50;99.90;;;;;;6073299;23;20015;-92
2022/10/21 01:38:42;;;;;;;57.75;28.65;;;13.50;99.90;;;;;;6072629;23;21409;-92
2022/10/21 01:41:17;;;;;;;53.33;28.48;;;13.50;99.90;;;;;;6073161;23;20013;-93
2022/10/21 01:44:05;;;;;;;50.72;27.70;;;13.40;99.90;;;;;;6072863;23;20018;-91
2022/10/21 01:47:03;;;;;;;49.35;26.98;;;13.40;99.90;;;;;;6073116;23;20038;-92
2022/10/21 01:49:48;;;;;;;45.55;24.95;;;13.40;99.90;;;;;;6051877;23;20114;-92
2022/10/21 01:52:16;;;;;;;43.90;25.38;;;13.40;99.90;;;;;;6072551;23;20010;-93
2022/10/21 01:54:47;;;;;;;41.83;25.05;;;13.40;99.90;;;;;;6072412;23;20007;-92
2022/10/21 01:57:19;;;;;;;55.72;24.45;;;13.40;99.90;;;;;;6072500;23;20014;-94
2022/10/21 01:59:47;;;;;;;42.85;26.02;;;13.40;99.90;;;;;;6168427;23;20008;-92
2022/10/21 02:02:16;;;;;;;49.13;26.83;;;13.40;99.90;;;;;;6190864;23;20008;-91
2022/10/21 02:04:46;;;;;;;45.10;26.42;;;13.30;99.90;;;;;;6215854;23;20442;-93
2022/10/21 02:07:13;;;;;;;45.63;24.88;;;13.30;99.90;;;;;;6216205;23;20066;-92
2022/10/21 02:09:39;;;;;;;42.80;26.55;;;13.20;99.90;;;;;;6215337;23;20005;-92
2022/10/21 02:12:13;;;;;;;48.10;26.90;;;13.20;99.90;;;;;;6191227;23;20078;-92
2022/10/21 02:14:44;;;;;;;42.58;24.85;;;13.20;99.90;;;;;;6215417;23;20013;-92
2022/10/21 02:17:21;;;;;;;48.40;26.05;;;13.20;99.90;;;;;;6191449;23;20348;-92
2022/10/21 02:19:51;;;;;;;53.45;26.92;;;13.20;99.90;;;;;;6191503;23;20008;-93
2022/10/21 02:22:40;;;;;;;50.97;26.85;;;13.20;99.90;;;;;;6191214;23;20008;-92
2022/10/21 02:25:20;;;;;;;48.83;26.98;;;13.20;99.90;;;;;;6164511;23;20021;-93
2022/10/21 02:27:54;;;;;;;51.33;26.25;;;13.10;99.90;;;;;;6162715;23;20327;-93
2022/10/21 02:31:02;;;;;;;47.57;26.40;;;13.10;99.90;;;;;;6164975;23;20387;-93
2022/10/21 02:33:52;;;;;;;42.45;24.27;;;13.10;99.90;;;;;;6161806;23;20088;-93
2022/10/21 02:36:44;;;;;;;40.65;23.65;;;13.10;99.90;;;;;;6162613;23;20001;-93
2022/10/21 02:39:19;;;;;;;;;;;13.00;99.90;;;;;;6173643;23;20020;-92
2022/10/21 02:41:50;;;;;;;47.45;25.13;;;13.00;99.90;;;;;;6185677;23;19931;-93
2022/10/21 02:44:16;;;;;;;49.30;25.23;;;13.00;99.90;;;;;;6160776;23;20071;-92
2022/10/21 02:46:47;;;;;;;45.17;25.65;;;13.00;99.90;;;;;;6186095;23;20419;-93
2022/10/21 02:49:13;;;;;;;44.80;25.05;;;13.00;99.90;;;;;;6161094;23;20017;-92
2022/10/21 02:51:41;;;;;;;45.40;24.73;;;13.00;99.90;;;;;;6187860;23;20005;-93
2022/10/21 02:54:08;;;;;;;42.92;25.25;;;13.00;99.90;;;;;;6186681;23;20024;-93
2022/10/21 02:56:34;;;;;;;41.15;22.83;;;13.00;99.90;;;;;;6163889;23;20008;-92
2022/10/21 02:59:01;;;;;;;45.00;22.65;;;12.90;99.90;;;;;;6161331;23;20009;-92
2022/10/21 03:02:01;;;;;;;;;;;;;;;;;;;;;
2022/10/21 03:04:28;;;;;;;35.95;22.10;;;12.80;99.90;;;;;;6074544;23;20022;-92
2022/10/21 03:06:54;;;;;;;44.45;22.85;;;12.70;99.90;;;;;;6099481;23;20094;-93
2022/10/21 03:09:21;;;;;;;42.15;24.35;;;12.80;99.90;;;;;;6098133;23;20019;-92
2022/10/21 03:11:47;;;;;;;36.80;22.63;;;12.80;99.90;;;;;;6097572;23;20006;-93
2022/10/21 03:14:14;;;;;;;50.65;25.48;;;12.80;99.90;;;;;;6097752;23;20018;-92
2022/10/21 03:16:40;;;;;;;39.65;22.77;;;12.80;99.90;;;;;;6097820;23;20002;-93
2022/10/21 03:19:08;;;;;;;40.33;22.98;;;12.70;99.90;;;;;;6098944;23;20074;-93
2022/10/21 03:21:35;;;;;;;40.97;23.23;;;12.70;99.90;;;;;;6100420;23;20002;-93
2022/10/21 03:24:01;;;;;;;45.30;23.30;;;12.70;99.90;;;;;;6098199;23;20019;-92
2022/10/21 03:26:28;;;;;;;40.70;22.65;;;12.80;99.90;;;;;;6098487;23;20017;-92
2022/10/21 03:28:54;;;;;;;46.17;24.23;;;12.80;99.90;;;;;;6097708;23;20014;-93
2022/10/21 03:31:21;;;;;;;37.00;22.27;;;12.80;99.90;;;;;;6097382;23;20006;-92
2022/10/21 03:33:47;;;;;;;38.60;22.25;;;12.70;99.90;;;;;;6097546;23;20010;-93
2022/10/21 03:36:14;;;;;;;35.83;21.17;;;12.70;99.90;;;;;;6097550;23;20015;-94
2022/10/21 03:38:40;;;;;;;35.60;20.67;;;12.70;99.90;;;;;;6097421;23;20014;-93
2022/10/21 03:41:07;;;;;;;43.38;23.63;;;12.70;99.90;;;;;;6129376;23;20092;-92
2022/10/21 03:43:33;;;;;;;39.58;22.27;;;12.70;99.90;;;;;;6161728;23;20613;-93
2022/10/21 03:46:00;;;;;;;41.03;23.08;;;12.70;99.90;;;;;;6161761;23;20013;-92
2022/10/21 03:48:26;;;;;;;37.85;22.67;;;12.70;99.90;;;;;;6186794;23;20005;-92
2022/10/21 03:50:55;;;;;;;38.45;22.73;;;12.70;99.90;;;;;;6162119;23;20013;-92
2022/10/21 03:53:22;;;;;;;38.00;22.88;;;12.70;99.90;;;;;;6162423;23;20012;-92
2022/10/21 03:55:52;;;;;;;38.08;21.70;;;12.70;99.90;;;;;;6161922;23;20016;-93
2022/10/21 03:58:28;;;;;;;45.90;24.00;;;12.70;99.90;;;;;;6162025;23;20115;-94
2022/10/21 04:00:55;;;;;;;42.83;24.30;;;12.70;99.90;;;;;;6166274;23;20011;-93
2022/10/21 04:03:25;;;;;;;44.53;23.38;;;12.80;99.90;;;;;;6163026;23;20009;-92
2022/10/21 04:05:59;;;;;;;36.13;21.65;;;12.80;99.90;;;;;;6163963;23;20079;-92
2022/10/21 04:08:26;;;;;;;34.40;20.30;;;12.70;99.90;;;;;;6164385;23;20032;-93
2022/10/21 04:10:52;;;;;;;39.05;22.70;;;12.70;99.90;;;;;;6162383;23;20087;-92
2022/10/21 04:13:19;;;;;;;46.78;24.52;;;12.70;99.90;;;;;;6162797;23;20012;-94
2022/10/21 04:15:46;;;;;;;35.70;22.17;;;12.70;99.90;;;;;;6163375;23;20012;-92
2022/10/21 04:18:20;;;;;;;41.67;23.13;;;12.70;99.90;;;;;;6167105;23;20028;-93
2022/10/21 04:20:50;;;;;;;36.10;21.40;;;12.60;99.90;;;;;;6162658;23;20016;-93
2022/10/21 04:23:16;;;;;;;34.08;20.52;;;12.60;99.90;;;;;;6170194;23;20017;-92
2022/10/21 04:25:43;;;;;;;35.75;21.58;;;12.50;99.90;;;;;;6164264;23;20017;-92
2022/10/21 04:28:29;;;;;;;40.05;20.75;;;12.50;99.90;;;;;;6173236;23;20021;-92
2022/10/21 04:52:24;;;;;;;;;;;;;;;;;;;;;
2022/10/21 05:11:52;;;;;;;35.00;20.88;;;12.40;99.90;;;;;;6250917;22;20034;-92
2022/10/21 05:14:21;;;;;;;37.00;22.48;;;12.50;99.90;;;;;;6228056;22;20003;-92
2022/10/21 05:16:50;;;;;;;41.47;23.45;;;12.50;99.90;;;;;;6233305;22;20031;-92
2022/10/21 05:19:17;;;;;;;39.20;21.98;;;12.60;99.90;;;;;;6222389;23;20011;-91
2022/10/21 05:21:45;;;;;;;33.60;21.27;;;12.70;99.90;;;;;;6197476;23;20008;-91
2022/10/21 05:24:17;;;;;;;30.08;18.65;;;12.60;99.90;;;;;;6196180;23;20011;-91
2022/10/21 05:26:44;;;;;;;30.85;18.92;;;12.70;99.90;;;;;;6196654;23;20004;-93
2022/10/21 05:29:10;;;;;;;33.00;19.35;;;12.60;99.90;;;;;;6209017;23;20068;-91
2022/10/21 05:31:37;;;;;;;33.97;19.95;;;12.70;99.90;;;;;;6196760;23;20004;-92
2022/10/21 05:34:03;;;;;;;30.20;18.80;;;12.80;99.90;;;;;;6199426;23;20008;-92
2022/10/21 05:36:30;;;;;;;30.50;18.83;;;12.80;99.90;;;;;;6221790;23;20012;-92
2022/10/21 05:38:56;;;;;;;39.50;20.88;;;12.90;99.90;;;;;;6196240;23;20414;-92
2022/10/21 05:41:23;;;;;;;40.10;22.17;;;13.00;99.90;;;;;;6196341;23;20012;-92
2022/10/21 05:43:49;;;;;;;35.42;20.80;;;13.10;99.90;;;;;;6221054;23;20048;-92
2022/10/21 05:46:16;;;;;;;37.47;21.77;;;13.10;99.90;;;;;;6196137;23;20008;-92
2022/10/21 05:48:43;;;;;;;41.78;22.70;;;13.20;99.90;;;;;;6198301;23;20008;-90
2022/10/21 05:51:09;;;;;;;38.67;21.48;;;13.40;99.90;;;;;;6195411;23;20054;-92
2022/10/21 05:53:38;;;;;;;35.10;19.95;;;13.50;99.90;;;;;;6194955;23;20330;-89
2022/10/21 05:56:09;;;;;;;30.75;19.80;;;13.50;99.90;;;;;;6196134;23;20018;-90
2022/10/21 05:58:39;;;;;;;31.10;19.05;;;14.00;99.90;;;;;;6195580;23;20456;-91
2022/10/21 06:01:05;;;;;;;28.63;17.33;;;14.70;99.90;;;;;;6194967;23;20008;-92
2022/10/21 06:03:33;;;;;;;27.48;17.10;;;15.60;99.90;;;;;;6195552;23;20012;-90
2022/10/21 06:06:03;;;;;;;28.23;17.58;;;16.40;99.90;;;;;;6195419;23;20012;-91
2022/10/21 06:08:33;;;;;;;22.45;17.23;;;16.80;99.90;;;;;;6195611;23;20008;-92
2022/10/21 06:11:05;;;;;;;25.50;20.17;;;17.00;99.90;;;;;;6195336;23;20011;-92
2022/10/21 06:13:36;;;;;;;22.88;20.48;;;17.10;99.90;;;;;;6195699;23;20011;-94
2022/10/21 06:16:04;;;;;;;31.85;24.27;;;17.30;99.90;;;;;;6196301;23;20071;-92
2022/10/21 06:18:31;;;;;;;25.65;21.90;;;17.40;99.90;;;;;;6195255;23;20000;-93
2022/10/21 06:21:01;;;;;;;29.15;25.50;;;17.50;99.90;;;;;;6195292;23;20019;-92
2022/10/21 06:23:27;;;;;;;26.92;24.23;;;17.50;99.90;;;;;;6195785;23;20381;-92
2022/10/21 06:26:01;;;;;;;28.00;25.38;;;17.60;99.90;;;;;;6195634;23;20012;-91
2022/10/21 06:28:29;;;;;;;30.10;26.87;;;17.70;99.90;;;;;;6195445;23;20062;-92
2022/10/21 06:30:56;;;;;;;30.15;25.55;;;18.00;99.90;;;;;;6195676;23;20079;-91
2022/10/21 06:33:23;;;;;;;28.40;24.95;;;18.30;99.90;;;;;;6195647;23;20065;-92
2022/10/21 06:35:49;;;;;;;28.65;25.45;;;18.50;99.90;;;;;;6195366;23;20012;-93
2022/10/21 06:38:17;;;;;;;35.05;26.45;;;18.50;99.90;;;;;;6195548;23;20019;-92
2022/10/21 06:40:44;;;;;;;30.30;26.10;;;18.50;99.90;;;;;;6195359;23;20052;-92
2022/10/21 06:43:11;;;;;;;31.40;25.95;;;19.10;99.90;;;;;;6197252;23;20004;-94
2022/10/21 06:45:37;;;;;;;29.15;25.85;;;19.60;99.90;;;;;;6222928;23;20019;-93
2022/10/21 06:48:04;;;;;;;31.10;25.73;;;19.50;99.90;;;;;;6222736;23;20015;-92
2022/10/21 06:50:31;;;;;;;30.05;25.75;;;19.60;99.90;;;;;;6197915;23;20083;-92
2022/10/21 06:52:58;;;;;;;30.10;24.65;;;19.50;99.90;;;;;;6197538;23;20008;-92
2022/10/21 06:55:25;;;;;;;27.95;25.17;;;19.30;99.90;;;;;;6197597;23;20503;-92
2022/10/21 06:57:52;;;;;;;27.55;24.98;;;19.30;99.90;;;;;;6197463;23;20008;-91
2022/10/21 07:00:19;;;;;;;26.58;24.05;;;19.30;99.90;;;;;;6196994;23;20007;-91
2022/10/21 07:02:45;;;;;;;27.88;24.73;;;19.60;99.90;;;;;;6197716;23;20023;-93
2022/10/21 07:05:12;;;;;;;25.95;23.58;;;19.50;99.90;;;;;;6222369;23;20020;-92
2022/10/21 07:07:38;;;;;;;27.95;25.17;;;19.60;99.90;;;;;;6197086;23;20035;-92
2022/10/21 07:10:05;;;;;;;26.85;24.20;;;19.80;99.90;;;;;;6196893;23;20010;-93
2022/10/21 07:12:31;;;;;;;27.65;24.80;;;20.20;99.90;;;;;;6194454;23;20016;-86
2022/10/21 07:14:58;;;;;;;26.15;23.45;;;20.70;99.90;;;;;;6215960;23;20079;-86
2022/10/21 07:17:27;;;;;;;27.20;24.63;;;20.70;99.90;;;;;;6216329;23;20078;-85
2022/10/21 07:19:53;;;;;;;25.52;23.40;;;20.80;99.90;;;;;;6215783;23;20088;-85
2022/10/21 07:22:19;;;;;;;26.55;23.70;;;20.80;99.90;;;;;;6216359;23;20024;-86
2022/10/21 07:24:46;;;;;;;27.38;24.55;;;21.20;99.90;;;;;;6216785;23;20024;-84
2022/10/21 07:27:12;;;;;;;26.58;23.58;;;21.20;99.90;;;;;;6216556;23;20027;-85
2022/10/21 07:29:39;;;;;;;24.58;22.45;;;21.20;99.90;;;;;;6216463;23;20008;-87
2022/10/21 07:32:05;;;;;;;24.88;22.50;;;21.40;99.90;;;;;;6215970;23;20058;-86
2022/10/21 07:34:31;;;;;;;23.83;21.83;;;21.50;99.90;;;;;;6215991;23;20008;-86
2022/10/21 07:36:58;;;;;;;25.75;23.30;;;21.40;99.90;;;;;;6215978;23;20473;-85
2022/10/21 07:39:26;;;;;;;25.33;22.65;;;21.50;99.90;;;;;;6216180;23;20008;-85
2022/10/21 07:41:55;;;;;;;25.13;23.00;;;21.60;99.90;;;;;;6217830;23;19997;-85
2022/10/21 07:44:23;;;;;;;23.02;20.95;;;21.80;99.90;;;;;;6215715;23;20009;-86
2022/10/21 07:46:52;;;;;;;24.45;22.05;;;21.80;99.90;;;;;;6216196;23;20005;-84
2022/10/21 07:49:20;;;;;;;23.80;21.58;;;21.90;99.90;;;;;;6217680;23;20008;-85
2022/10/21 07:51:49;;;;;;;23.02;20.73;;;21.70;99.90;;;;;;6216337;23;20009;-83
2022/10/21 07:54:16;;;;;;;23.33;20.95;;;21.70;99.90;;;;;;6216034;23;20005;-85
2022/10/21 07:56:47;;;;;;;23.02;21.02;;;21.40;99.90;;;;;;6215956;23;20015;-85
2022/10/21 07:59:15;;;;;;;22.92;20.77;;;21.60;99.90;;;;;;6216115;23;20011;-88
2022/10/21 08:01:44;;;;;;;24.00;21.77;;;21.70;99.90;;;;;;6218830;23;20078;-88
2022/10/21 08:04:15;;;;;;;24.52;20.17;;;21.90;99.90;;;;;;6219630;23;20016;-94
2022/10/21 08:06:47;;;;;;;24.25;21.65;;;21.80;99.90;;;;;;6189239;23;20008;-93
2022/10/21 08:09:15;;;;;;;21.88;19.88;;;21.80;99.90;;;;;;6215503;23;20015;-94
2022/10/21 08:11:42;;;;;;;22.10;18.92;;;21.70;99.90;;;;;;6191948;23;20442;-92
2022/10/21 08:14:10;;;;;;;20.23;17.77;;;21.80;99.90;;;;;;6217983;23;20008;-92
2022/10/21 08:16:37;;;;;;;17.58;16.00;;;22.20;99.90;;;;;;6217051;23;20434;-93
2022/10/21 08:19:05;;;;;;;18.08;16.50;;;22.20;99.90;;;;;;6216396;23;20062;-93
2022/10/21 08:21:31;;;;;;;17.75;16.38;;;22.40;99.90;;;;;;6216113;23;20001;-94
2022/10/21 08:23:59;;;;;;;18.50;16.67;;;22.50;99.90;;;;;;6216208;23;20008;-92
2022/10/21 08:26:26;;;;;;;18.30;16.88;;;22.30;99.90;;;;;;6216806;23;20008;-94
2022/10/21 08:28:52;;;;;;;17.20;15.90;;;22.00;99.90;;;;;;6216458;23;20004;-93
2022/10/21 08:31:21;;;;;;;17.52;15.98;;;21.80;99.90;;;;;;6191183;23;20004;-92
2022/10/21 08:33:48;;;;;;;17.63;15.88;;;21.80;99.90;;;;;;6218256;23;20008;-93
2022/10/21 08:36:19;;;;;;;19.60;16.50;;;21.70;99.90;;;;;;6216283;23;20312;-93
2022/10/21 08:38:46;;;;;;;17.30;15.75;;;21.90;99.90;;;;;;6216287;23;20008;-93
2022/10/21 08:41:39;;;;;;;18.63;16.85;;;22.00;99.90;;;;;;6216141;23;20000;-93
2022/10/21 08:44:11;;;;;;;17.33;15.82;;;22.10;99.90;;;;;;6241653;22;20020;-93
2022/10/21 08:46:44;;;;;;;17.55;15.98;;;22.20;99.90;;;;;;6216257;22;20068;-93
2022/10/21 08:49:21;;;;;;;18.23;16.40;;;22.20;99.90;;;;;;6216185;23;20008;-92
2022/10/21 08:51:56;;;;;;;18.13;16.40;;;22.40;99.90;;;;;;6215917;23;20346;-93
2022/10/21 08:54:40;;;;;;;18.38;16.95;;;22.40;99.90;;;;;;6216231;23;20326;-92
2022/10/21 08:57:11;;;;;;;18.30;16.70;;;22.60;99.90;;;;;;6216229;23;20011;-94
2022/10/21 08:59:41;;;;;;;17.70;16.40;;;22.70;99.90;;;;;;6216828;23;20035;-94
2022/10/21 09:02:34;;;;;;;17.20;16.00;;;22.70;99.90;;;;;;6216835;23;20015;-94
2022/10/21 09:05:20;;;;;;;17.40;15.75;;;22.50;99.90;;;;;;6191223;23;20051;-93
2022/10/21 09:08:16;;;;;;;17.55;16.27;;;22.40;99.90;;;;;;6241580;22;20012;-92
2022/10/21 09:11:05;;;;;;;17.20;15.90;;;22.40;99.90;;;;;;6216079;23;20065;-93
2022/10/21 09:13:49;;;;;;;17.50;16.10;;;22.30;99.90;;;;;;6216010;23;20020;-94
2022/10/21 09:16:41;;;;;;;17.02;15.55;;;22.10;99.90;;;;;;6191047;23;20092;-93
2022/10/21 09:19:41;;;;;;;17.58;16.10;;;22.50;99.90;;;;;;6216671;23;20008;-94
2022/10/21 09:22:20;;;;;;;16.77;15.70;;;22.70;99.90;;;;;;6215964;23;20131;-94
2022/10/21 09:25:02;;;;;;;17.40;16.30;;;23.00;99.90;;;;;;6241129;22;20048;-93
2022/10/21 09:27:30;;;;;;;17.23;16.02;;;23.20;99.90;;;;;;6213830;23;20442;-93
2022/10/21 09:29:59;;;;;;;17.67;16.40;;;23.30;99.90;;;;;;6216160;23;20004;-94
2022/10/21 09:32:35;;;;;;;18.15;16.63;;;23.50;99.90;;;;;;6216065;23;20005;-92
2022/10/21 09:35:23;;;;;;;17.52;16.33;;;23.60;99.90;;;;;;6220478;23;20009;-93
2022/10/21 09:40:33;;;;;;;19.55;16.80;;;23.80;99.90;;;;;;6226583;23;20025;-94
2022/10/21 09:43:14;;;;;;;17.35;16.13;;;23.80;99.90;;;;;;6146702;23;20445;-93
2022/10/21 09:45:47;;;;;;;17.15;15.95;;;23.80;99.90;;;;;;6134916;23;20024;-93
2022/10/21 09:48:23;;;;;;;17.58;16.33;;;23.80;99.90;;;;;;6137523;23;20012;-93
2022/10/21 09:51:16;;;;;;;18.23;16.92;;;23.80;99.90;;;;;;6137496;23;20017;-93
2022/10/21 09:53:53;;;;;;;17.02;15.75;;;23.40;99.90;;;;;;6136477;23;20080;-93
2022/10/21 09:56:55;;;;;;;17.67;16.58;;;23.10;99.90;;;;;;6136935;23;20408;-94
2022/10/21 09:59:24;;;;;;;18.52;17.02;;;23.20;99.90;;;;;;6087140;23;20013;-93
2022/10/21 10:01:53;;;;;;;18.20;16.60;;;23.40;99.90;;;;;;6136287;23;20486;-93
2022/10/21 10:04:31;;;;;;;17.80;16.60;;;23.50;99.90;;;;;;6136092;23;20028;-92
2022/10/21 10:07:18;;;;;;;17.65;16.45;;;23.40;99.90;;;;;;6136270;23;20061;-92
2022/10/21 10:09:46;;;;;;;17.80;16.30;;;23.10;99.90;;;;;;6136014;23;20395;-92
2022/10/21 10:12:15;;;;;;;18.23;16.95;;;23.00;99.90;;;;;;6137145;23;20431;-95
2022/10/21 10:14:48;;;;;;;18.35;17.10;;;23.10;99.90;;;;;;6136231;23;20027;-93
2022/10/21 10:17:32;;;;;;;18.00;16.65;;;23.40;99.90;;;;;;6140819;23;20370;-93
2022/10/21 10:20:14;;;;;;;18.30;16.63;;;23.30;99.90;;;;;;6139600;23;20412;-95
2022/10/21 10:23:08;;;;;;;17.20;15.95;;;23.30;99.90;;;;;;6141454;23;20016;-93
2022/10/21 10:25:38;;;;;;;17.60;16.33;;;23.30;99.90;;;;;;6140808;23;20023;-93
2022/10/21 10:28:08;;;;;;;18.52;16.67;;;23.00;99.90;;;;;;6140064;23;20399;-92
2022/10/21 10:30:41;;;;;;;18.50;16.88;;;23.10;99.90;;;;;;6139761;23;20013;-95
2022/10/21 10:33:18;;;;;;;18.33;16.80;;;23.30;99.90;;;;;;6139930;23;20016;-94
2022/10/21 10:36:40;;;;;;;;;;;;;;;;;;;;;
2022/10/21 13:49:35;;;;;;;17.60;16.25;;;22.30;99.90;;;;;;6199589;22;20016;31
2022/10/21 13:52:25;;;;;;;16.85;15.70;;;22.20;99.90;;;;;;6138925;23;20045;-93
2022/10/21 13:55:23;;;;;;;17.88;16.40;;;22.10;99.90;;;;;;6116092;23;20013;-93
2022/10/21 13:57:55;;;;;;;16.70;15.55;;;22.10;99.90;;;;;;6115995;23;20010;-94
2022/10/21 14:01:08;;;;;;;16.40;15.40;;;22.10;99.90;;;;;;6116081;23;20013;-94
2022/10/21 14:03:45;;;;;;;18.10;16.77;;;22.00;99.90;;;;;;6003324;23;20435;-93
2022/10/21 14:09:24;;;;;;;16.50;15.32;;;21.90;99.90;;;;;;6201670;22;20024;-93
2022/10/21 14:11:56;;;;;;;16.90;15.55;;;21.80;99.90;;;;;;6246247;23;20438;-93
2022/10/21 14:14:27;;;;;;;16.23;15.13;;;21.90;99.90;;;;;;6240584;23;20024;-93
2022/10/21 14:17:04;;;;;;;16.42;15.32;;;21.90;99.90;;;;;;6231570;23;20035;-93
2022/10/21 14:19:36;;;;;;;16.55;15.35;;;21.90;99.90;;;;;;6228787;23;20094;-94
2022/10/21 14:22:09;;;;;;;16.70;15.60;;;21.80;99.90;;;;;;6221879;23;20138;-93
2022/10/21 14:24:47;;;;;;;17.65;16.20;;;21.70;99.90;;;;;;6221709;23;20323;-92
2022/10/21 14:27:27;;;;;;;18.35;16.50;;;21.70;99.90;;;;;;6221406;23;20043;-93
2022/10/21 14:29:56;;;;;;;17.38;16.17;;;21.70;99.90;;;;;;6224261;23;20008;-93
2022/10/21 14:32:25;;;;;;;17.45;16.10;;;21.60;99.90;;;;;;6221313;23;20076;-92
2022/10/21 14:35:04;;;;;;;17.30;16.02;;;21.50;99.90;;;;;;6220746;23;20016;-92
2022/10/21 14:37:42;;;;;;;16.27;15.25;;;21.40;99.90;;;;;;6221094;23;20007;-92
2022/10/21 14:40:37;;;;;;;17.60;16.30;;;21.40;99.90;;;;;;6220600;23;20480;-92
2022/10/21 14:43:52;;;;;;;16.88;15.57;;;21.30;99.90;;;;;;6220994;23;20075;-93
2022/10/21 14:46:20;;;;;;;17.70;16.15;;;21.20;99.90;;;;;;6109651;23;20081;-93
2022/10/21 14:48:51;;;;;;;17.60;16.45;;;21.20;99.90;;;;;;6104690;23;20002;-93
2022/10/21 14:51:27;;;;;;;17.85;16.55;;;21.10;99.90;;;;;;6132610;23;20009;-93
2022/10/21 14:54:00;;;;;;;18.02;16.45;;;21.00;99.90;;;;;;6106066;23;20010;-93
2022/10/21 14:56:43;;;;;;;18.17;16.63;;;21.00;99.90;;;;;;6105640;23;20010;-93
2022/10/21 14:59:32;;;;;;;17.63;16.20;;;20.90;99.90;;;;;;6105842;23;20017;-94
2022/10/21 15:02:00;;;;;;;18.00;16.60;;;20.90;99.90;;;;;;6105221;23;20053;-93
2022/10/21 15:04:50;;;;;;;18.02;16.75;;;21.00;99.90;;;;;;6133424;23;20018;-93
2022/10/21 15:07:51;;;;;;;17.08;16.08;;;20.90;99.90;;;;;;6111091;23;20388;-93
2022/10/21 15:14:38;;;;;;;17.25;15.85;;;20.80;99.90;;;;;;6261935;22;20028;-94
2022/10/21 15:17:10;;;;;;;16.95;15.70;;;20.70;99.90;;;;;;6210046;23;20028;-93
2022/10/21 15:19:45;;;;;;;16.98;15.68;;;20.70;99.90;;;;;;6206954;23;20008;-93
2022/10/21 15:22:53;;;;;;;17.42;16.30;;;20.70;99.90;;;;;;6206414;23;20004;-93
2022/10/21 15:25:26;;;;;;;16.42;15.13;;;20.60;99.90;;;;;;6061903;23;20095;-94
2022/10/21 15:28:32;;;;;;;16.65;15.43;;;20.50;99.90;;;;;;6085423;23;20066;-93
2022/10/21 15:31:01;;;;;;;17.15;15.63;;;20.50;99.90;;;;;;6058267;23;20023;-93
2022/10/21 15:39:47;;;;;;;20.70;18.55;;;20.20;99.90;;;;;;6272377;23;20025;-95
2022/10/21 15:42:48;;;;;;;31.73;20.23;;;20.10;99.90;;;;;;6245211;23;20512;-92
2022/10/21 15:45:23;;;;;;;30.00;20.58;;;20.00;99.90;;;;;;6206345;23;20019;-92
2022/10/21 15:47:54;;;;;;;37.97;23.10;;;19.90;99.90;;;;;;6176090;23;20039;-93
2022/10/21 15:50:24;;;;;;;31.83;23.15;;;19.90;99.90;;;;;;6169038;23;20024;-92
2022/10/21 15:52:53;;;;;;;31.77;22.60;;;19.70;99.90;;;;;;6193246;23;20391;-92
2022/10/21 15:55:24;;;;;;;31.40;22.02;;;19.70;99.90;;;;;;6170845;23;20001;-92
2022/10/21 15:57:51;;;;;;;29.02;19.77;;;19.50;99.90;;;;;;6171395;23;20032;-94
2022/10/21 16:00:38;;;;;;;21.08;18.95;;;19.50;99.90;;;;;;6148684;23;20005;-93
2022/10/21 16:03:07;;;;;;;22.00;19.67;;;19.30;99.90;;;;;;6181848;23;20013;-92
2022/10/21 16:05:34;;;;;;;23.50;20.02;;;19.20;99.90;;;;;;6169476;23;20020;-92
2022/10/21 16:08:01;;;;;;;25.05;21.60;;;19.10;99.90;;;;;;6168738;23;20036;-91
2022/10/21 16:10:34;;;;;;;22.67;20.38;;;18.90;99.90;;;;;;6172244;23;20008;-92
2022/10/21 16:13:02;;;;;;;22.40;19.85;;;18.70;99.90;;;;;;6168477;23;20005;-92
2022/10/21 16:15:32;;;;;;;23.02;20.45;;;18.60;99.90;;;;;;6167038;23;20005;-91
2022/10/21 16:18:00;;;;;;;21.42;19.23;;;18.50;99.90;;;;;;6168159;23;20012;-94
2022/10/21 16:20:29;;;;;;;22.70;20.35;;;18.50;99.90;;;;;;6161312;23;20008;-92
2022/10/21 16:22:57;;;;;;;21.30;19.27;;;18.40;99.90;;;;;;6137464;23;20005;-93
2022/10/21 16:25:24;;;;;;;22.05;19.77;;;18.30;99.90;;;;;;6138137;23;20347;-91
2022/10/21 16:27:50;;;;;;;21.95;19.98;;;18.30;99.90;;;;;;6136304;23;20009;-91
2022/10/21 16:30:40;;;;;;;22.42;20.15;;;18.30;99.90;;;;;;6136279;23;20485;-92
2022/10/21 16:33:07;;;;;;;22.17;20.20;;;18.20;99.90;;;;;;6136380;23;20009;-92
2022/10/21 16:35:34;;;;;;;23.02;20.90;;;18.20;99.90;;;;;;6133497;23;20009;-93
2022/10/21 16:38:03;;;;;;;22.80;20.63;;;18.10;99.90;;;;;;6136969;23;20028;-92
2022/10/21 16:40:34;;;;;;;22.25;20.00;;;17.90;99.90;;;;;;6137267;23;20029;-94
2022/10/21 16:43:00;;;;;;;22.40;20.30;;;17.80;99.90;;;;;;6135579;23;20035;-92
2022/10/21 16:45:43;;;;;;;24.02;20.90;;;17.70;99.90;;;;;;6135951;23;20080;-92
2022/10/21 16:48:10;;;;;;;22.35;20.27;;;17.60;99.90;;;;;;6134356;23;20111;-91
2022/10/21 16:50:40;;;;;;;21.92;19.92;;;17.60;99.90;;;;;;6134700;23;20088;-91
2022/10/21 16:53:12;;;;;;;22.27;20.20;;;17.50;99.90;;;;;;6136755;23;20437;-92
2022/10/21 16:55:39;;;;;;;22.05;19.80;;;17.50;99.90;;;;;;6136362;23;20316;-92
2022/10/21 16:58:05;;;;;;;21.88;20.08;;;17.40;99.90;;;;;;6155242;23;20012;-92
2022/10/21 17:00:33;;;;;;;21.90;19.92;;;17.20;99.90;;;;;;6167635;23;20008;-93
2022/10/21 17:02:59;;;;;;;22.15;19.90;;;17.20;99.90;;;;;;6169256;23;20009;-91
2022/10/21 17:05:26;;;;;;;21.42;19.63;;;17.10;99.90;;;;;;6195690;23;20020;-92
2022/10/21 17:07:53;;;;;;;21.80;19.90;;;17.10;99.90;;;;;;6171917;23;20000;-91